sensor_id;sensor_type;location;lat;lon;timestamp;temperature;humidity
60701;DHT22;46541;49.894;10.886;2023-02-01T00:01:10;5.00;99.90
60701;DHT22;46541;49.894;10.886;2023-02-01T00:03:37;5.00;99.90
60701;DHT22;46541;49.894;10.886;2023-02-01T00:06:04;5.00;99.90
60701;DHT22;46541;49.894;10.886;2023-02-01T00:08:31;5.00;99.90
60701;DHT22;46541;49.894;10.886;2023-02-01T00:10:59;5.00;99.90
60701;DHT22;46541;49.894;10.886;2023-02-01T00:13:31;5.00;99.90
60701;DHT22;46541;49.894;10.886;2023-02-01T00:16:06;5.10;99.90
60701;DHT22;46541;49.894;10.886;2023-02-01T00:18:33;5.10;99.90
60701;DHT22;46541;49.894;10.886;2023-02-01T00:21:00;5.10;99.90
60701;DHT22;46541;49.894;10.886;2023-02-01T00:23:27;5.10;99.90
60701;DHT22;46541;49.894;10.886;2023-02-01T00:25:54;5.10;99.90
60701;DHT22;46541;49.894;10.886;2023-02-01T00:28:21;5.10;99.90
60701;DHT22;46541;49.894;10.886;2023-02-01T00:30:58;5.10;99.90
60701;DHT22;46541;49.894;10.886;2023-02-01T00:33:25;5.20;99.90
60701;DHT22;46541;49.894;10.886;2023-02-01T00:35:57;5.10;99.90
60701;DHT22;46541;49.894;10.886;2023-02-01T00:38:25;5.20;99.90
60701;DHT22;46541;49.894;10.886;2023-02-01T00:40:52;5.20;99.90
60701;DHT22;46541;49.894;10.886;2023-02-01T00:43:19;5.20;99.90
60701;DHT22;46541;49.894;10.886;2023-02-01T00:45:46;5.20;99.90
60701;DHT22;46541;49.894;10.886;2023-02-01T00:48:13;5.20;99.90
60701;DHT22;46541;49.894;10.886;2023-02-01T00:50:43;5.20;99.90
60701;DHT22;46541;49.894;10.886;2023-02-01T00:53:10;5.20;99.90
60701;DHT22;46541;49.894;10.886;2023-02-01T00:55:37;5.30;99.90
60701;DHT22;46541;49.894;10.886;2023-02-01T00:58:04;5.30;99.90
60701;DHT22;46541;49.894;10.886;2023-02-01T01:00:33;5.30;99.90
60701;DHT22;46541;49.894;10.886;2023-02-01T01:02:59;5.20;99.90
60701;DHT22;46541;49.894;10.886;2023-02-01T01:05:26;5.30;99.90
60701;DHT22;46541;49.894;10.886;2023-02-01T01:07:54;5.30;99.90
60701;DHT22;46541;49.894;10.886;2023-02-01T01:10:21;5.20;99.90
60701;DHT22;46541;49.894;10.886;2023-02-01T01:12:48;5.20;99.90
60701;DHT22;46541;49.894;10.886;2023-02-01T01:15:15;5.20;99.90
60701;DHT22;46541;49.894;10.886;2023-02-01T01:17:42;5.20;99.90
60701;DHT22;46541;49.894;10.886;2023-02-01T01:20:09;5.20;99.90
60701;DHT22;46541;49.894;10.886;2023-02-01T01:22:36;5.30;99.90
60701;DHT22;46541;49.894;10.886;2023-02-01T01:25:03;5.30;99.90
60701;DHT22;46541;49.894;10.886;2023-02-01T01:27:30;5.30;99.90
60701;DHT22;46541;49.894;10.886;2023-02-01T01:29:56;5.30;99.90
60701;DHT22;46541;49.894;10.886;2023-02-01T01:32:23;5.30;99.90
60701;DHT22;46541;49.894;10.886;2023-02-01T01:34:50;5.40;99.90
60701;DHT22;46541;49.894;10.886;2023-02-01T01:37:16;5.40;99.90
60701;DHT22;46541;49.894;10.886;2023-02-01T01:39:43;5.30;99.90
60701;DHT22;46541;49.894;10.886;2023-02-01T01:42:11;5.40;99.90
60701;DHT22;46541;49.894;10.886;2023-02-01T01:44:59;5.30;99.90
60701;DHT22;46541;49.894;10.886;2023-02-01T01:47:33;5.30;99.90
60701;DHT22;46541;49.894;10.886;2023-02-01T01:50:02;5.20;99.90
60701;DHT22;46541;49.894;10.886;2023-02-01T01:52:29;5.20;99.90
60701;DHT22;46541;49.894;10.886;2023-02-01T01:54:57;5.20;99.90
60701;DHT22;46541;49.894;10.886;2023-02-01T01:57:28;5.20;99.90
60701;DHT22;46541;49.894;10.886;2023-02-01T02:00:05;5.20;99.90
60701;DHT22;46541;49.894;10.886;2023-02-01T02:02:35;5.20;99.90
60701;DHT22;46541;49.894;10.886;2023-02-01T02:05:03;5.10;99.90
60701;DHT22;46541;49.894;10.886;2023-02-01T02:07:33;5.10;99.90
60701;DHT22;46541;49.894;10.886;2023-02-01T02:10:03;5.10;99.90
60701;DHT22;46541;49.894;10.886;2023-02-01T02:12:32;5.10;99.90
60701;DHT22;46541;49.894;10.886;2023-02-01T02:14:59;5.00;99.90
60701;DHT22;46541;49.894;10.886;2023-02-01T02:26:08;4.90;99.90
60701;DHT22;46541;49.894;10.886;2023-02-01T02:36:45;4.90;99.90
60701;DHT22;46541;49.894;10.886;2023-02-01T02:40:07;4.90;99.90
60701;DHT22;46541;49.894;10.886;2023-02-01T02:42:23;4.90;99.90
60701;DHT22;46541;49.894;10.886;2023-02-01T02:45:44;4.90;99.90
60701;DHT22;46541;49.894;10.886;2023-02-01T02:48:42;5.00;99.90
60701;DHT22;46541;49.894;10.886;2023-02-01T02:51:24;5.00;99.90
60701;DHT22;46541;49.894;10.886;2023-02-01T02:54:17;5.00;99.90
60701;DHT22;46541;49.894;10.886;2023-02-01T02:57:06;5.00;99.90
60701;DHT22;46541;49.894;10.886;2023-02-01T02:59:53;5.00;99.90
60701;DHT22;46541;49.894;10.886;2023-02-01T03:02:40;5.00;99.90
60701;DHT22;46541;49.894;10.886;2023-02-01T03:05:25;5.00;99.90
60701;DHT22;46541;49.894;10.886;2023-02-01T03:08:24;5.00;99.90
60701;DHT22;46541;49.894;10.886;2023-02-01T03:11:09;5.00;99.90
60701;DHT22;46541;49.894;10.886;2023-02-01T03:21:02;5.00;99.90
60701;DHT22;46541;49.894;10.886;2023-02-01T03:23:33;5.10;99.90
60701;DHT22;46541;49.894;10.886;2023-02-01T03:26:02;5.10;99.90
60701;DHT22;46541;49.894;10.886;2023-02-01T03:28:33;5.00;99.90
60701;DHT22;46541;49.894;10.886;2023-02-01T03:31:01;5.00;99.90
60701;DHT22;46541;49.894;10.886;2023-02-01T03:33:29;5.00;99.90
60701;DHT22;46541;49.894;10.886;2023-02-01T03:41:26;5.10;99.90
60701;DHT22;46541;49.894;10.886;2023-02-01T03:43:58;5.00;99.90
60701;DHT22;46541;49.894;10.886;2023-02-01T03:46:35;5.00;99.90
60701;DHT22;46541;49.894;10.886;2023-02-01T03:49:06;5.00;99.90
60701;DHT22;46541;49.894;10.886;2023-02-01T03:51:33;5.10;99.90
60701;DHT22;46541;49.894;10.886;2023-02-01T03:54:03;5.00;99.90
60701;DHT22;46541;49.894;10.886;2023-02-01T03:56:32;5.10;99.90
60701;DHT22;46541;49.894;10.886;2023-02-01T03:59:02;5.10;99.90
60701;DHT22;46541;49.894;10.886;2023-02-01T04:01:30;5.10;99.90
60701;DHT22;46541;49.894;10.886;2023-02-01T04:03:58;5.10;99.90
60701;DHT22;46541;49.894;10.886;2023-02-01T04:06:25;5.10;99.90
60701;DHT22;46541;49.894;10.886;2023-02-01T04:08:52;5.10;99.90
60701;DHT22;46541;49.894;10.886;2023-02-01T04:11:19;5.20;99.90
60701;DHT22;46541;49.894;10.886;2023-02-01T04:13:45;5.10;99.90
60701;DHT22;46541;49.894;10.886;2023-02-01T04:16:12;5.10;99.90
60701;DHT22;46541;49.894;10.886;2023-02-01T04:18:39;5.10;99.90
60701;DHT22;46541;49.894;10.886;2023-02-01T04:21:06;5.20;99.90
60701;DHT22;46541;49.894;10.886;2023-02-01T04:23:32;5.10;99.90
60701;DHT22;46541;49.894;10.886;2023-02-01T04:26:00;5.10;99.90
60701;DHT22;46541;49.894;10.886;2023-02-01T04:28:28;5.10;99.90
60701;DHT22;46541;49.894;10.886;2023-02-01T04:30:55;5.10;99.90
60701;DHT22;46541;49.894;10.886;2023-02-01T04:33:22;5.10;99.90
60701;DHT22;46541;49.894;10.886;2023-02-01T04:35:48;5.10;99.90
60701;DHT22;46541;49.894;10.886;2023-02-01T04:38:15;5.10;99.90
60701;DHT22;46541;49.894;10.886;2023-02-01T04:40:43;5.10;99.90
60701;DHT22;46541;49.894;10.886;2023-02-01T04:43:09;5.10;99.90
60701;DHT22;46541;49.894;10.886;2023-02-01T04:45:36;5.00;99.90
60701;DHT22;46541;49.894;10.886;2023-02-01T04:48:03;5.00;99.90
60701;DHT22;46541;49.894;10.886;2023-02-01T04:50:30;5.00;99.90
60701;DHT22;46541;49.894;10.886;2023-02-01T04:52:56;5.00;99.90
60701;DHT22;46541;49.894;10.886;2023-02-01T04:55:23;5.00;99.90
60701;DHT22;46541;49.894;10.886;2023-02-01T04:57:50;5.00;99.90
60701;DHT22;46541;49.894;10.886;2023-02-01T05:00:17;4.90;99.90
60701;DHT22;46541;49.894;10.886;2023-02-01T05:02:43;4.90;99.90
60701;DHT22;46541;49.894;10.886;2023-02-01T05:05:10;4.90;99.90
60701;DHT22;46541;49.894;10.886;2023-02-01T05:07:37;4.90;99.90
60701;DHT22;46541;49.894;10.886;2023-02-01T05:10:04;4.90;99.90
60701;DHT22;46541;49.894;10.886;2023-02-01T05:12:30;4.90;99.90
60701;DHT22;46541;49.894;10.886;2023-02-01T05:15:16;4.90;99.90
60701;DHT22;46541;49.894;10.886;2023-02-01T05:17:42;4.90;99.90
60701;DHT22;46541;49.894;10.886;2023-02-01T05:20:10;4.90;99.90
60701;DHT22;46541;49.894;10.886;2023-02-01T05:22:37;5.00;99.90
60701;DHT22;46541;49.894;10.886;2023-02-01T05:25:04;5.00;99.90
60701;DHT22;46541;49.894;10.886;2023-02-01T05:27:35;5.00;99.90
60701;DHT22;46541;49.894;10.886;2023-02-01T05:30:04;5.00;99.90
60701;DHT22;46541;49.894;10.886;2023-02-01T05:32:31;4.90;99.90
60701;DHT22;46541;49.894;10.886;2023-02-01T05:34:57;4.90;99.90
60701;DHT22;46541;49.894;10.886;2023-02-01T05:37:24;4.90;99.90
60701;DHT22;46541;49.894;10.886;2023-02-01T05:39:51;4.90;99.90
60701;DHT22;46541;49.894;10.886;2023-02-01T05:42:18;4.90;99.90
60701;DHT22;46541;49.894;10.886;2023-02-01T05:44:44;4.90;99.90
60701;DHT22;46541;49.894;10.886;2023-02-01T05:47:11;4.90;99.90
60701;DHT22;46541;49.894;10.886;2023-02-01T05:49:39;4.90;99.90
60701;DHT22;46541;49.894;10.886;2023-02-01T05:52:05;4.90;99.90
60701;DHT22;46541;49.894;10.886;2023-02-01T05:54:32;4.90;99.90
60701;DHT22;46541;49.894;10.886;2023-02-01T05:56:59;4.90;99.90
60701;DHT22;46541;49.894;10.886;2023-02-01T05:59:25;4.90;99.90
60701;DHT22;46541;49.894;10.886;2023-02-01T06:01:52;4.90;99.90
60701;DHT22;46541;49.894;10.886;2023-02-01T06:04:19;4.90;99.90
60701;DHT22;46541;49.894;10.886;2023-02-01T06:06:45;4.90;99.90
60701;DHT22;46541;49.894;10.886;2023-02-01T06:09:12;4.90;99.90
60701;DHT22;46541;49.894;10.886;2023-02-01T06:11:39;5.00;99.90
60701;DHT22;46541;49.894;10.886;2023-02-01T06:14:06;5.00;99.90
60701;DHT22;46541;49.894;10.886;2023-02-01T06:16:34;5.00;99.90
60701;DHT22;46541;49.894;10.886;2023-02-01T06:19:01;5.00;99.90
60701;DHT22;46541;49.894;10.886;2023-02-01T06:21:27;5.00;99.90
60701;DHT22;46541;49.894;10.886;2023-02-01T06:23:54;5.00;99.90
60701;DHT22;46541;49.894;10.886;2023-02-01T06:26:21;5.00;99.90
60701;DHT22;46541;49.894;10.886;2023-02-01T06:28:48;5.00;99.90
60701;DHT22;46541;49.894;10.886;2023-02-01T06:31:15;5.00;99.90
60701;DHT22;46541;49.894;10.886;2023-02-01T06:33:42;5.00;99.90
60701;DHT22;46541;49.894;10.886;2023-02-01T06:36:10;5.00;99.90
60701;DHT22;46541;49.894;10.886;2023-02-01T06:38:39;5.00;99.90
60701;DHT22;46541;49.894;10.886;2023-02-01T06:41:06;4.90;99.90
60701;DHT22;46541;49.894;10.886;2023-02-01T06:43:33;4.90;99.90
60701;DHT22;46541;49.894;10.886;2023-02-01T06:46:05;4.90;99.90
60701;DHT22;46541;49.894;10.886;2023-02-01T06:48:32;4.90;99.90
60701;DHT22;46541;49.894;10.886;2023-02-01T06:50:59;4.90;99.90
60701;DHT22;46541;49.894;10.886;2023-02-01T06:53:26;4.90;99.90
60701;DHT22;46541;49.894;10.886;2023-02-01T06:55:58;4.90;99.90
60701;DHT22;46541;49.894;10.886;2023-02-01T06:58:31;4.90;99.90
60701;DHT22;46541;49.894;10.886;2023-02-01T07:01:04;4.90;99.90
60701;DHT22;46541;49.894;10.886;2023-02-01T07:03:31;4.90;99.90
60701;DHT22;46541;49.894;10.886;2023-02-01T07:05:58;4.90;99.90
60701;DHT22;46541;49.894;10.886;2023-02-01T07:08:28;4.90;99.90
60701;DHT22;46541;49.894;10.886;2023-02-01T07:10:55;4.90;99.90
60701;DHT22;46541;49.894;10.886;2023-02-01T07:13:22;4.90;99.90
60701;DHT22;46541;49.894;10.886;2023-02-01T07:15:49;4.90;99.90
60701;DHT22;46541;49.894;10.886;2023-02-01T07:18:15;4.90;99.90
60701;DHT22;46541;49.894;10.886;2023-02-01T07:20:42;4.90;99.90
60701;DHT22;46541;49.894;10.886;2023-02-01T07:23:12;4.90;99.90
60701;DHT22;46541;49.894;10.886;2023-02-01T07:25:39;4.90;99.90
60701;DHT22;46541;49.894;10.886;2023-02-01T07:28:06;5.00;99.90
60701;DHT22;46541;49.894;10.886;2023-02-01T07:30:32;5.00;99.90
60701;DHT22;46541;49.894;10.886;2023-02-01T07:32:59;5.00;99.90
60701;DHT22;46541;49.894;10.886;2023-02-01T07:35:28;5.00;99.90
60701;DHT22;46541;49.894;10.886;2023-02-01T07:37:57;5.10;99.90
60701;DHT22;46541;49.894;10.886;2023-02-01T07:40:24;5.10;99.90
60701;DHT22;46541;49.894;10.886;2023-02-01T07:42:57;5.10;99.90
60701;DHT22;46541;49.894;10.886;2023-02-01T07:45:24;5.10;99.90
60701;DHT22;46541;49.894;10.886;2023-02-01T07:47:52;5.10;99.90
60701;DHT22;46541;49.894;10.886;2023-02-01T07:50:20;5.10;99.90
60701;DHT22;46541;49.894;10.886;2023-02-01T07:52:47;5.10;99.90
60701;DHT22;46541;49.894;10.886;2023-02-01T07:55:14;5.00;99.90
60701;DHT22;46541;49.894;10.886;2023-02-01T07:57:40;5.00;99.90
60701;DHT22;46541;49.894;10.886;2023-02-01T08:00:08;5.00;99.90
60701;DHT22;46541;49.894;10.886;2023-02-01T08:02:54;5.00;99.90
60701;DHT22;46541;49.894;10.886;2023-02-01T08:05:20;5.00;99.90
60701;DHT22;46541;49.894;10.886;2023-02-01T08:07:50;5.00;99.90
60701;DHT22;46541;49.894;10.886;2023-02-01T08:10:18;5.10;99.90
60701;DHT22;46541;49.894;10.886;2023-02-01T08:12:45;5.10;99.90
60701;DHT22;46541;49.894;10.886;2023-02-01T08:15:17;5.10;99.90
60701;DHT22;46541;49.894;10.886;2023-02-01T08:17:50;5.10;99.90
60701;DHT22;46541;49.894;10.886;2023-02-01T08:20:18;5.20;99.90
60701;DHT22;46541;49.894;10.886;2023-02-01T08:22:45;5.20;99.90
60701;DHT22;46541;49.894;10.886;2023-02-01T08:25:12;5.30;99.90
60701;DHT22;46541;49.894;10.886;2023-02-01T08:27:39;5.30;99.90
60701;DHT22;46541;49.894;10.886;2023-02-01T08:30:06;5.30;99.90
60701;DHT22;46541;49.894;10.886;2023-02-01T08:32:34;5.40;99.90
60701;DHT22;46541;49.894;10.886;2023-02-01T08:35:01;5.40;99.90
60701;DHT22;46541;49.894;10.886;2023-02-01T08:37:28;5.50;99.90
60701;DHT22;46541;49.894;10.886;2023-02-01T08:39:55;5.50;99.90
60701;DHT22;46541;49.894;10.886;2023-02-01T08:42:22;5.50;99.90
60701;DHT22;46541;49.894;10.886;2023-02-01T08:45:08;5.60;99.90
60701;DHT22;46541;49.894;10.886;2023-02-01T08:47:35;5.60;99.90
60701;DHT22;46541;49.894;10.886;2023-02-01T08:50:02;5.70;99.90
60701;DHT22;46541;49.894;10.886;2023-02-01T08:52:29;5.70;99.90
60701;DHT22;46541;49.894;10.886;2023-02-01T08:54:55;5.80;99.90
60701;DHT22;46541;49.894;10.886;2023-02-01T08:57:22;5.80;99.90
60701;DHT22;46541;49.894;10.886;2023-02-01T08:59:49;5.80;99.90
60701;DHT22;46541;49.894;10.886;2023-02-01T09:02:17;5.90;99.90
60701;DHT22;46541;49.894;10.886;2023-02-01T09:04:43;6.00;99.90
60701;DHT22;46541;49.894;10.886;2023-02-01T09:07:10;6.10;99.90
60701;DHT22;46541;49.894;10.886;2023-02-01T09:09:39;6.30;99.90
60701;DHT22;46541;49.894;10.886;2023-02-01T09:12:06;6.40;99.90
60701;DHT22;46541;49.894;10.886;2023-02-01T09:14:33;6.50;99.90
60701;DHT22;46541;49.894;10.886;2023-02-01T09:16:59;6.40;99.90
60701;DHT22;46541;49.894;10.886;2023-02-01T09:19:26;6.40;99.90
60701;DHT22;46541;49.894;10.886;2023-02-01T09:21:53;6.40;99.90
60701;DHT22;46541;49.894;10.886;2023-02-01T09:24:20;6.40;99.90
60701;DHT22;46541;49.894;10.886;2023-02-01T09:26:47;6.40;99.90
60701;DHT22;46541;49.894;10.886;2023-02-01T09:29:14;6.50;99.90
60701;DHT22;46541;49.894;10.886;2023-02-01T09:31:40;6.60;99.90
60701;DHT22;46541;49.894;10.886;2023-02-01T09:34:19;6.60;99.90
60701;DHT22;46541;49.894;10.886;2023-02-01T09:36:45;6.60;99.90
60701;DHT22;46541;49.894;10.886;2023-02-01T09:39:12;6.60;99.90
60701;DHT22;46541;49.894;10.886;2023-02-01T09:41:47;6.60;99.90
60701;DHT22;46541;49.894;10.886;2023-02-01T09:47:20;6.50;99.90
60701;DHT22;46541;49.894;10.886;2023-02-01T09:50:04;6.40;99.90
60701;DHT22;46541;49.894;10.886;2023-02-01T09:55:35;6.40;99.90
60701;DHT22;46541;49.894;10.886;2023-02-01T09:58:12;6.40;99.90
60701;DHT22;46541;49.894;10.886;2023-02-01T10:01:03;6.40;99.90
60701;DHT22;46541;49.894;10.886;2023-02-01T10:03:35;6.40;99.90
60701;DHT22;46541;49.894;10.886;2023-02-01T10:09:25;6.30;99.90
60701;DHT22;46541;49.894;10.886;2023-02-01T10:12:28;6.30;99.90
60701;DHT22;46541;49.894;10.886;2023-02-01T10:15:04;6.20;99.90
60701;DHT22;46541;49.894;10.886;2023-02-01T10:28:34;6.10;99.90
60701;DHT22;46541;49.894;10.886;2023-02-01T10:31:03;6.10;99.90
60701;DHT22;46541;49.894;10.886;2023-02-01T10:33:34;6.20;99.90
60701;DHT22;46541;49.894;10.886;2023-02-01T10:36:05;6.20;99.90
60701;DHT22;46541;49.894;10.886;2023-02-01T10:38:35;6.20;99.90
60701;DHT22;46541;49.894;10.886;2023-02-01T10:41:08;6.20;99.90
60701;DHT22;46541;49.894;10.886;2023-02-01T10:43:38;6.20;99.90
60701;DHT22;46541;49.894;10.886;2023-02-01T10:46:07;6.20;99.90
60701;DHT22;46541;49.894;10.886;2023-02-01T10:48:35;6.30;99.90
60701;DHT22;46541;49.894;10.886;2023-02-01T10:51:21;6.30;99.90
60701;DHT22;46541;49.894;10.886;2023-02-01T10:56:28;6.40;99.90
60701;DHT22;46541;49.894;10.886;2023-02-01T10:59:06;6.30;99.90
60701;DHT22;46541;49.894;10.886;2023-02-01T11:01:43;6.20;99.90
60701;DHT22;46541;49.894;10.886;2023-02-01T11:04:19;6.30;99.90
60701;DHT22;46541;49.894;10.886;2023-02-01T11:06:53;6.30;99.90
60701;DHT22;46541;49.894;10.886;2023-02-01T11:09:22;6.30;99.90
60701;DHT22;46541;49.894;10.886;2023-02-01T11:16:55;6.40;99.90
60701;DHT22;46541;49.894;10.886;2023-02-01T11:19:23;6.50;99.90
60701;DHT22;46541;49.894;10.886;2023-02-01T11:21:55;6.50;99.90
60701;DHT22;46541;49.894;10.886;2023-02-01T11:24:25;6.60;99.90
60701;DHT22;46541;49.894;10.886;2023-02-01T11:26:57;6.60;99.90
60701;DHT22;46541;49.894;10.886;2023-02-01T11:29:25;6.60;99.90
60701;DHT22;46541;49.894;10.886;2023-02-01T11:31:59;6.60;99.90
60701;DHT22;46541;49.894;10.886;2023-02-01T11:34:33;6.60;99.90
60701;DHT22;46541;49.894;10.886;2023-02-01T11:37:03;6.50;99.90
60701;DHT22;46541;49.894;10.886;2023-02-01T11:39:33;6.60;99.90
60701;DHT22;46541;49.894;10.886;2023-02-01T11:42:13;6.60;99.90
60701;DHT22;46541;49.894;10.886;2023-02-01T11:44:45;6.70;99.90
60701;DHT22;46541;49.894;10.886;2023-02-01T11:47:31;6.80;99.90
60701;DHT22;46541;49.894;10.886;2023-02-01T11:50:14;6.80;99.90
60701;DHT22;46541;49.894;10.886;2023-02-01T12:11:45;7.10;99.90
60701;DHT22;46541;49.894;10.886;2023-02-01T12:39:22;7.10;99.90
60701;DHT22;46541;49.894;10.886;2023-02-01T12:44:44;7.00;99.90
60701;DHT22;46541;49.894;10.886;2023-02-01T12:47:47;7.00;99.90
60701;DHT22;46541;49.894;10.886;2023-02-01T12:50:28;7.00;99.90
60701;DHT22;46541;49.894;10.886;2023-02-01T12:55:55;7.00;99.90
60701;DHT22;46541;49.894;10.886;2023-02-01T12:58:40;6.90;99.90
60701;DHT22;46541;49.894;10.886;2023-02-01T13:01:22;6.90;99.90
60701;DHT22;46541;49.894;10.886;2023-02-01T13:03:59;6.80;99.90
60701;DHT22;46541;49.894;10.886;2023-02-01T13:06:37;6.80;99.90
60701;DHT22;46541;49.894;10.886;2023-02-01T13:11:37;6.80;99.90
60701;DHT22;46541;49.894;10.886;2023-02-01T13:14:33;6.80;99.90
60701;DHT22;46541;49.894;10.886;2023-02-01T13:17:14;6.80;99.90
60701;DHT22;46541;49.894;10.886;2023-02-01T13:22:25;6.90;99.90
60701;DHT22;46541;49.894;10.886;2023-02-01T13:25:02;6.80;99.90
60701;DHT22;46541;49.894;10.886;2023-02-01T13:27:30;6.80;99.90
60701;DHT22;46541;49.894;10.886;2023-02-01T13:30:04;6.80;99.90
60701;DHT22;46541;49.894;10.886;2023-02-01T13:32:48;6.90;99.90
60701;DHT22;46541;49.894;10.886;2023-02-01T13:43:57;6.90;99.90
60701;DHT22;46541;49.894;10.886;2023-02-01T13:46:26;7.00;99.90
60701;DHT22;46541;49.894;10.886;2023-02-01T13:48:59;7.00;99.90
60701;DHT22;46541;49.894;10.886;2023-02-01T13:51:43;7.10;99.90
60701;DHT22;46541;49.894;10.886;2023-02-01T13:54:39;7.10;99.90
60701;DHT22;46541;49.894;10.886;2023-02-01T13:57:36;7.10;99.90
60701;DHT22;46541;49.894;10.886;2023-02-01T14:00:30;7.10;99.90
60701;DHT22;46541;49.894;10.886;2023-02-01T14:03:05;7.10;99.90
60701;DHT22;46541;49.894;10.886;2023-02-01T14:13:29;7.10;99.90
60701;DHT22;46541;49.894;10.886;2023-02-01T14:23:57;7.10;99.90
60701;DHT22;46541;49.894;10.886;2023-02-01T14:26:42;7.10;99.90
60701;DHT22;46541;49.894;10.886;2023-02-01T14:34:39;7.00;99.90
60701;DHT22;46541;49.894;10.886;2023-02-01T14:37:25;7.00;99.90
60701;DHT22;46541;49.894;10.886;2023-02-01T14:40:05;7.00;99.90
60701;DHT22;46541;49.894;10.886;2023-02-01T14:55:47;6.80;99.90
60701;DHT22;46541;49.894;10.886;2023-02-01T14:58:40;6.80;99.90
60701;DHT22;46541;49.894;10.886;2023-02-01T15:01:29;6.80;99.90
60701;DHT22;46541;49.894;10.886;2023-02-01T15:09:20;6.80;99.90
60701;DHT22;46541;49.894;10.886;2023-02-01T15:14:46;6.80;99.90
60701;DHT22;46541;49.894;10.886;2023-02-01T15:17:22;6.70;99.90
60701;DHT22;46541;49.894;10.886;2023-02-01T15:19:57;6.70;99.90
60701;DHT22;46541;49.894;10.886;2023-02-01T15:22:28;6.70;99.90
60701;DHT22;46541;49.894;10.886;2023-02-01T15:24:59;6.60;99.90
60701;DHT22;46541;49.894;10.886;2023-02-01T15:27:31;6.60;99.90
60701;DHT22;46541;49.894;10.886;2023-02-01T15:30:08;6.60;99.90
60701;DHT22;46541;49.894;10.886;2023-02-01T15:32:39;6.60;99.90
60701;DHT22;46541;49.894;10.886;2023-02-01T15:35:36;6.60;99.90
60701;DHT22;46541;49.894;10.886;2023-02-01T15:43:30;6.60;99.90
60701;DHT22;46541;49.894;10.886;2023-02-01T15:46:00;6.60;99.90
60701;DHT22;46541;49.894;10.886;2023-02-01T15:49:05;6.60;99.90
60701;DHT22;46541;49.894;10.886;2023-02-01T15:51:26;6.50;99.90
60701;DHT22;46541;49.894;10.886;2023-02-01T15:53:57;6.50;99.90
60701;DHT22;46541;49.894;10.886;2023-02-01T15:56:27;6.50;99.90
60701;DHT22;46541;49.894;10.886;2023-02-01T15:59:00;6.50;99.90
60701;DHT22;46541;49.894;10.886;2023-02-01T16:01:28;6.50;99.90
60701;DHT22;46541;49.894;10.886;2023-02-01T16:04:25;6.40;99.90
60701;DHT22;46541;49.894;10.886;2023-02-01T16:06:55;6.40;99.90
60701;DHT22;46541;49.894;10.886;2023-02-01T16:09:25;6.40;99.90
60701;DHT22;46541;49.894;10.886;2023-02-01T16:12:02;6.40;99.90
60701;DHT22;46541;49.894;10.886;2023-02-01T16:14:30;6.40;99.90
60701;DHT22;46541;49.894;10.886;2023-02-01T16:16:59;6.40;99.90
60701;DHT22;46541;49.894;10.886;2023-02-01T16:19:25;6.40;99.90
60701;DHT22;46541;49.894;10.886;2023-02-01T16:21:55;6.40;99.90
60701;DHT22;46541;49.894;10.886;2023-02-01T16:24:22;6.40;99.90
60701;DHT22;46541;49.894;10.886;2023-02-01T16:26:51;6.40;99.90
60701;DHT22;46541;49.894;10.886;2023-02-01T16:29:18;6.40;99.90
60701;DHT22;46541;49.894;10.886;2023-02-01T16:31:45;6.40;99.90
60701;DHT22;46541;49.894;10.886;2023-02-01T16:34:14;6.40;99.90
60701;DHT22;46541;49.894;10.886;2023-02-01T16:36:48;6.40;99.90
60701;DHT22;46541;49.894;10.886;2023-02-01T16:39:19;6.40;99.90
60701;DHT22;46541;49.894;10.886;2023-02-01T16:41:46;6.40;99.90
60701;DHT22;46541;49.894;10.886;2023-02-01T16:44:13;6.40;99.90
60701;DHT22;46541;49.894;10.886;2023-02-01T16:46:42;6.40;99.90
60701;DHT22;46541;49.894;10.886;2023-02-01T16:49:24;6.40;99.90
60701;DHT22;46541;49.894;10.886;2023-02-01T16:51:56;6.40;99.90
60701;DHT22;46541;49.894;10.886;2023-02-01T16:54:23;6.30;99.90
60701;DHT22;46541;49.894;10.886;2023-02-01T16:56:50;6.30;99.90
60701;DHT22;46541;49.894;10.886;2023-02-01T16:59:16;6.30;99.90
60701;DHT22;46541;49.894;10.886;2023-02-01T17:01:43;6.30;99.90
60701;DHT22;46541;49.894;10.886;2023-02-01T17:04:10;6.30;99.90
60701;DHT22;46541;49.894;10.886;2023-02-01T17:06:38;6.30;99.90
60701;DHT22;46541;49.894;10.886;2023-02-01T17:09:06;6.30;99.90
60701;DHT22;46541;49.894;10.886;2023-02-01T17:11:32;6.30;99.90
60701;DHT22;46541;49.894;10.886;2023-02-01T17:14:20;6.30;99.90
60701;DHT22;46541;49.894;10.886;2023-02-01T17:16:48;6.30;99.90
60701;DHT22;46541;49.894;10.886;2023-02-01T17:19:19;6.30;99.90
60701;DHT22;46541;49.894;10.886;2023-02-01T17:21:51;6.30;99.90
60701;DHT22;46541;49.894;10.886;2023-02-01T17:24:22;6.30;99.90
60701;DHT22;46541;49.894;10.886;2023-02-01T17:26:51;6.30;99.90
60701;DHT22;46541;49.894;10.886;2023-02-01T17:29:18;6.30;99.90
60701;DHT22;46541;49.894;10.886;2023-02-01T17:31:48;6.30;99.90
60701;DHT22;46541;49.894;10.886;2023-02-01T17:34:16;6.30;99.90
60701;DHT22;46541;49.894;10.886;2023-02-01T17:36:45;6.30;99.90
60701;DHT22;46541;49.894;10.886;2023-02-01T17:39:14;6.30;99.90
60701;DHT22;46541;49.894;10.886;2023-02-01T17:42:01;6.30;99.90
60701;DHT22;46541;49.894;10.886;2023-02-01T17:44:28;6.20;99.90
60701;DHT22;46541;49.894;10.886;2023-02-01T17:46:55;6.10;99.90
60701;DHT22;46541;49.894;10.886;2023-02-01T17:49:23;6.10;99.90
60701;DHT22;46541;49.894;10.886;2023-02-01T17:51:50;6.10;99.90
60701;DHT22;46541;49.894;10.886;2023-02-01T17:54:17;6.00;99.90
60701;DHT22;46541;49.894;10.886;2023-02-01T17:56:45;6.00;99.90
60701;DHT22;46541;49.894;10.886;2023-02-01T17:59:14;6.00;99.90
60701;DHT22;46541;49.894;10.886;2023-02-01T18:01:41;6.00;99.90
60701;DHT22;46541;49.894;10.886;2023-02-01T18:04:12;6.00;99.90
60701;DHT22;46541;49.894;10.886;2023-02-01T18:06:39;6.00;99.90
60701;DHT22;46541;49.894;10.886;2023-02-01T18:09:06;6.00;99.90
60701;DHT22;46541;49.894;10.886;2023-02-01T18:11:32;6.00;99.90
60701;DHT22;46541;49.894;10.886;2023-02-01T18:13:59;6.00;99.90
60701;DHT22;46541;49.894;10.886;2023-02-01T18:16:33;6.00;99.90
60701;DHT22;46541;49.894;10.886;2023-02-01T18:19:01;6.10;99.90
60701;DHT22;46541;49.894;10.886;2023-02-01T18:21:40;6.10;99.90
60701;DHT22;46541;49.894;10.886;2023-02-01T18:24:17;6.10;99.90
60701;DHT22;46541;49.894;10.886;2023-02-01T18:26:44;6.10;99.90
60701;DHT22;46541;49.894;10.886;2023-02-01T18:29:11;6.10;99.90
60701;DHT22;46541;49.894;10.886;2023-02-01T18:31:45;6.10;99.90
60701;DHT22;46541;49.894;10.886;2023-02-01T18:34:12;6.20;99.90
60701;DHT22;46541;49.894;10.886;2023-02-01T18:36:47;6.10;99.90
60701;DHT22;46541;49.894;10.886;2023-02-01T18:39:14;6.20;99.90
60701;DHT22;46541;49.894;10.886;2023-02-01T18:41:43;6.20;99.90
60701;DHT22;46541;49.894;10.886;2023-02-01T18:44:13;6.10;99.90